createdAt,value
2018-09-05T00:00:50.725Z,101012.90
2018-09-05T00:03:20.240Z,101013.91
2018-09-05T00:05:49.533Z,101007.10
2018-09-05T00:08:18.958Z,101006.27
2018-09-05T00:10:50.453Z,101009.19
2018-09-05T00:13:19.590Z,101008.03
2018-09-05T00:15:48.991Z,101003.55
2018-09-05T00:18:20.454Z,101005.45
2018-09-05T00:20:49.689Z,101008.09
2018-09-05T00:23:19.008Z,101011.37
2018-09-05T00:25:48.361Z,101001.28
2018-09-05T00:28:17.671Z,101002.32
2018-09-05T00:30:46.994Z,101002.05
2018-09-05T00:33:16.409Z,101002.50
2018-09-05T00:35:45.733Z,101004.56
2018-09-05T00:38:15.089Z,101005.69
2018-09-05T00:40:44.437Z,101012.36
2018-09-05T00:43:13.897Z,101006.55
2018-09-05T00:45:43.260Z,100999.58
2018-09-05T00:48:12.496Z,100999.16
2018-09-05T00:50:41.851Z,100999.81
2018-09-05T00:53:11.149Z,101000.88
2018-09-05T00:55:42.752Z,100999.75
2018-09-05T00:58:12.128Z,101000.61
2018-09-05T01:00:41.670Z,101005.61
2018-09-05T01:03:10.946Z,101007.88
2018-09-05T01:05:40.449Z,101008.51
2018-09-05T01:08:09.670Z,101008.14
2018-09-05T01:10:38.914Z,101010.19
2018-09-05T01:13:08.102Z,101010.64
2018-09-05T01:15:37.417Z,101010.19
2018-09-05T01:18:06.769Z,101008.84
2018-09-05T01:20:36.094Z,101009.30
2018-09-05T01:23:05.446Z,101007.42
2018-09-05T01:25:34.657Z,101009.60
2018-09-05T01:28:03.920Z,101006.91
2018-09-05T01:30:33.038Z,101009.23
2018-09-05T01:33:02.365Z,101008.89
2018-09-05T01:35:31.514Z,101011.45
2018-09-05T01:38:00.677Z,101005.16
2018-09-05T01:40:29.809Z,101008.48
2018-09-05T01:42:59.013Z,101004.52
2018-09-05T01:45:28.278Z,101007.14
2018-09-05T01:47:57.522Z,101002.06
2018-09-05T01:50:31.694Z,101003.83
2018-09-05T01:53:01.126Z,101004.22
2018-09-05T01:55:30.369Z,100997.95
2018-09-05T01:57:59.627Z,100999.45
2018-09-05T02:00:33.694Z,100998.03
2018-09-05T02:03:03.642Z,100999.37
2018-09-05T02:05:32.878Z,100994.50
2018-09-05T02:08:03.115Z,100999.83
2018-09-05T02:10:33.055Z,101002.17
2018-09-05T02:13:02.900Z,101003.89
2018-09-05T02:15:32.022Z,100999.99
2018-09-05T02:18:01.487Z,101003.34
2018-09-05T02:20:30.727Z,101001.62
2018-09-05T02:22:59.995Z,101003.23
2018-09-05T02:25:29.235Z,101002.40
2018-09-05T02:27:58.562Z,101001.97
2018-09-05T02:30:27.673Z,101001.59
2018-09-05T02:32:56.870Z,101006.46
2018-09-05T02:35:26.038Z,101001.31
2018-09-05T02:37:55.450Z,100993.75
2018-09-05T02:40:24.726Z,101000.48
2018-09-05T02:42:53.974Z,100997.92
2018-09-05T02:45:23.334Z,101002.13
2018-09-05T02:47:52.518Z,101003.92
2018-09-05T02:50:21.760Z,101003.48
2018-09-05T02:52:50.840Z,101003.48
2018-09-05T02:55:25.142Z,101000.11
2018-09-05T02:57:54.316Z,101006.09
2018-09-05T03:00:23.552Z,101004.36
2018-09-05T03:02:52.792Z,101002.73
2018-09-05T03:05:22.211Z,101001.83
2018-09-05T03:07:51.454Z,101003.34
2018-09-05T03:10:20.714Z,101002.35
2018-09-05T03:12:49.826Z,100999.27
2018-09-05T03:15:19.138Z,101004.06
2018-09-05T03:17:48.345Z,101003.75
2018-09-05T03:20:17.570Z,101002.13
2018-09-05T03:22:46.797Z,101002.87
2018-09-05T03:25:16.174Z,101003.00
2018-09-05T03:27:45.422Z,101003.16
2018-09-05T03:30:14.675Z,100999.13
2018-09-05T03:32:43.974Z,101005.70
2018-09-05T03:35:13.193Z,101007.44
2018-09-05T03:37:42.503Z,101013.92
2018-09-05T03:40:11.848Z,101001.81
2018-09-05T03:42:40.951Z,101003.91
2018-09-05T03:45:10.213Z,101007.36
2018-09-05T03:47:39.433Z,101010.09
2018-09-05T03:50:09.343Z,101013.45
2018-09-05T03:52:38.533Z,101011.52
2018-09-05T03:55:07.934Z,101014.52
2018-09-05T03:57:38.225Z,101013.81
2018-09-05T04:00:08.189Z,101016.66
2018-09-05T04:02:37.499Z,101015.31
2018-09-05T04:05:06.775Z,101019.20
2018-09-05T04:07:36.044Z,101018.25
2018-09-05T04:10:05.556Z,101029.02
2018-09-05T04:12:38.749Z,101023.47
2018-09-05T04:15:08.157Z,101029.60
2018-09-05T04:17:37.561Z,101025.48
2018-09-05T04:20:07.819Z,101026.31
2018-09-05T04:22:36.925Z,101021.97
2018-09-05T04:25:06.128Z,101027.19
2018-09-05T04:27:35.442Z,101026.52
2018-09-05T04:30:04.901Z,101025.80
2018-09-05T04:32:34.149Z,101021.61
2018-09-05T04:35:03.549Z,101022.75
2018-09-05T04:37:33.706Z,101022.36
2018-09-05T04:40:02.901Z,101025.57
2018-09-05T04:42:32.398Z,101023.16
2018-09-05T04:45:01.738Z,101030.78
2018-09-05T04:47:31.082Z,101030.42
2018-09-05T04:50:00.396Z,101024.45
2018-09-05T04:52:29.726Z,101026.47
2018-09-05T04:54:59.078Z,101024.18
2018-09-05T04:57:28.394Z,101034.23
2018-09-05T04:59:57.595Z,101031.07
2018-09-05T05:02:26.958Z,101033.48
2018-09-05T05:04:56.434Z,101030.00
2018-09-05T05:07:25.704Z,101034.13
2018-09-05T05:09:55.174Z,101033.52
2018-09-05T05:12:24.498Z,101040.26
2018-09-05T05:14:53.874Z,101032.90
2018-09-05T05:17:23.195Z,101040.69
2018-09-05T05:19:52.446Z,101035.82
2018-09-05T05:22:21.604Z,101035.16
2018-09-05T05:24:50.763Z,101041.53
2018-09-05T05:27:20.092Z,101039.51
2018-09-05T05:29:49.256Z,101044.45
2018-09-05T05:32:18.559Z,101044.30
2018-09-05T05:34:47.886Z,101047.54
2018-09-05T05:37:17.194Z,101045.23
2018-09-05T05:39:46.459Z,101035.51
2018-09-05T05:42:15.786Z,101040.67
2018-09-05T05:44:45.159Z,101042.00
2018-09-05T05:47:14.506Z,101036.00
2018-09-05T05:49:43.754Z,101040.26
2018-09-05T05:52:13.075Z,101041.30
2018-09-05T05:54:42.251Z,101042.86
2018-09-05T05:57:11.600Z,101046.31
2018-09-05T05:59:40.895Z,101050.57
2018-09-05T06:02:10.239Z,101050.56
2018-09-05T06:04:39.546Z,101054.57
2018-09-05T06:07:08.934Z,101058.30
2018-09-05T06:09:39.099Z,101063.44
2018-09-05T06:12:08.507Z,101060.69
2018-09-05T06:14:37.828Z,101058.31
2018-09-05T06:17:07.191Z,101062.15
2018-09-05T06:19:37.315Z,101074.09
2018-09-05T06:22:06.658Z,101065.45
2018-09-05T06:24:36.157Z,101067.19
2018-09-05T06:27:05.534Z,101064.83
2018-09-05T06:29:34.821Z,101067.59
2018-09-05T06:32:04.206Z,101066.56
2018-09-05T06:34:33.400Z,101073.03
2018-09-05T06:37:02.739Z,101065.73
2018-09-05T06:39:32.043Z,101060.27
2018-09-05T06:42:01.843Z,101056.61
2018-09-05T06:44:31.072Z,101061.87
2018-09-05T06:47:00.436Z,101060.11
2018-09-05T06:49:29.575Z,101059.68
2018-09-05T06:51:58.867Z,101065.45
2018-09-05T06:54:28.165Z,101066.95
2018-09-05T06:56:57.459Z,101067.87
2018-09-05T06:59:26.741Z,101072.32
2018-09-05T07:01:56.053Z,101066.99
2018-09-05T07:04:25.288Z,101067.86
2018-09-05T07:06:54.501Z,101064.69
2018-09-05T07:09:23.715Z,101062.89
2018-09-05T07:11:53.055Z,101065.50
2018-09-05T07:14:22.273Z,101063.70
2018-09-05T07:16:51.676Z,101073.87
2018-09-05T07:19:21.081Z,101071.81
2018-09-05T07:21:50.485Z,101069.25
2018-09-05T07:24:19.727Z,101066.95
2018-09-05T07:26:48.967Z,101070.08
2018-09-05T07:29:18.233Z,101072.86
2018-09-05T07:31:47.487Z,101079.67
2018-09-05T07:34:16.941Z,101073.23
2018-09-05T07:36:46.237Z,101072.73
2018-09-05T07:39:15.337Z,101072.81
2018-09-05T07:41:44.601Z,101075.06
2018-09-05T07:44:13.790Z,101073.20
2018-09-05T07:46:43.030Z,101074.92
2018-09-05T07:49:13.012Z,101074.20
2018-09-05T07:51:42.223Z,101076.15
2018-09-05T07:54:11.435Z,101076.48
2018-09-05T07:56:40.651Z,101072.73
2018-09-05T07:59:09.939Z,101081.23
2018-09-05T08:01:39.197Z,101074.27
2018-09-05T08:04:08.719Z,101072.30
2018-09-05T08:06:38.000Z,101068.38
2018-09-05T08:09:10.576Z,101068.77
2018-09-05T08:11:39.952Z,101073.23
2018-09-05T08:14:09.210Z,101070.02
2018-09-05T08:16:38.498Z,101073.06
2018-09-05T08:19:07.987Z,101070.41
2018-09-05T08:21:37.296Z,101063.48
2018-09-05T08:24:06.755Z,101070.55
2018-09-05T08:26:36.115Z,101075.44
2018-09-05T08:29:05.523Z,101075.48
2018-09-05T08:31:35.149Z,101079.63
2018-09-05T08:34:04.526Z,101077.86
2018-09-05T08:36:33.928Z,101074.64
2018-09-05T08:39:03.626Z,101068.95
2018-09-05T08:41:32.871Z,101070.13
2018-09-05T08:44:02.280Z,101072.34
2018-09-05T08:46:31.451Z,101071.31
2018-09-05T08:49:00.775Z,101070.80
2018-09-05T08:51:30.018Z,101067.03
2018-09-05T08:53:59.250Z,101068.14
2018-09-05T08:56:28.633Z,101064.91
2018-09-05T08:58:57.940Z,101069.30
2018-09-05T09:01:27.197Z,101068.78
2018-09-05T09:03:56.521Z,101069.60
2018-09-05T09:06:25.931Z,101068.77
2018-09-05T09:08:55.285Z,101071.81
2018-09-05T09:11:24.476Z,101064.48
2018-09-05T09:13:53.730Z,101065.34
2018-09-05T09:16:22.975Z,101068.66
2018-09-05T09:18:52.274Z,101061.56
2018-09-05T09:21:21.458Z,101061.56
2018-09-05T09:23:50.799Z,101060.20
2018-09-05T09:26:20.168Z,101050.41
2018-09-05T09:28:49.422Z,101049.03
2018-09-05T09:31:18.737Z,101050.97
2018-09-05T09:33:48.066Z,101047.65
2018-09-05T09:36:17.379Z,101043.52
2018-09-05T09:38:46.638Z,101047.34
2018-09-05T09:41:15.946Z,101041.03
2018-09-05T09:43:45.266Z,101046.46
2018-09-05T09:46:14.502Z,101042.36
2018-09-05T09:48:44.019Z,101043.68
2018-09-05T09:51:13.214Z,101037.64
2018-09-05T09:53:42.615Z,101038.47
2018-09-05T09:56:11.932Z,101028.88
2018-09-05T09:58:42.287Z,101032.84
2018-09-05T10:01:16.610Z,101021.81
2018-09-05T10:03:50.884Z,101022.30
2018-09-05T10:06:26.122Z,101017.55
2018-09-05T10:09:00.694Z,101019.05
2018-09-05T10:11:34.822Z,101012.92
2018-09-05T10:14:09.348Z,101008.97
2018-09-05T10:16:41.360Z,101013.57
2018-09-05T10:19:12.109Z,101010.84
2018-09-05T10:21:41.389Z,101005.23
2018-09-05T10:24:10.594Z,101010.81
2018-09-05T10:26:39.890Z,101007.17
2018-09-05T10:29:09.334Z,100999.44
2018-09-05T10:31:38.684Z,100997.06
2018-09-05T10:34:08.635Z,100990.88
2018-09-05T10:36:38.002Z,100992.17
2018-09-05T10:39:09.551Z,100993.84
2018-09-05T10:41:38.935Z,100986.33
2018-09-05T10:44:08.975Z,100989.47
2018-09-05T10:46:38.893Z,100983.16
2018-09-05T10:49:08.726Z,100988.73
2018-09-05T10:51:43.070Z,100990.20
2018-09-05T10:54:12.639Z,100984.86
2018-09-05T10:56:41.931Z,100981.20
2018-09-05T10:59:11.222Z,100977.98
2018-09-05T11:01:40.629Z,100979.67
2018-09-05T11:04:10.472Z,100979.71
2018-09-05T11:06:39.851Z,100978.66
2018-09-05T11:09:12.999Z,100982.06
2018-09-05T11:11:42.338Z,100974.49
2018-09-05T11:14:11.926Z,100969.95
2018-09-05T11:16:41.842Z,100969.19
2018-09-05T11:19:11.192Z,100969.42
2018-09-05T11:21:40.860Z,100968.31
2018-09-05T11:24:10.318Z,100964.97
2018-09-05T11:26:39.772Z,100966.78
2018-09-05T11:29:09.114Z,100965.05
2018-09-05T11:31:38.457Z,100963.70
2018-09-05T11:34:07.869Z,100965.27
2018-09-05T11:36:37.109Z,100960.53
2018-09-05T11:39:11.098Z,100956.28
2018-09-05T11:41:40.490Z,100956.47
2018-09-05T11:44:09.830Z,100949.30
2018-09-05T11:46:40.015Z,100951.42
2018-09-05T11:49:09.852Z,100953.13
2018-09-05T11:51:39.126Z,100947.59
2018-09-05T11:54:09.022Z,100940.77
2018-09-05T11:56:38.374Z,100940.75
2018-09-05T11:59:08.323Z,100943.09
2018-09-05T12:01:37.639Z,100941.09
2018-09-05T12:04:06.827Z,100943.08
2018-09-05T12:06:36.606Z,100936.78
2018-09-05T12:09:09.515Z,100935.89
2018-09-05T12:11:38.945Z,100929.59
2018-09-05T12:14:08.892Z,100931.55
2018-09-05T12:16:38.737Z,100916.27
2018-09-05T12:19:08.592Z,100915.63
2018-09-05T12:21:37.821Z,100924.38
2018-09-05T12:24:07.009Z,100919.89
2018-09-05T12:26:36.381Z,100916.89
2018-09-05T12:29:09.815Z,100914.72
2018-09-05T12:31:39.271Z,100919.11
2018-09-05T12:34:08.643Z,100916.33
2018-09-05T12:36:37.935Z,100907.13
2018-09-05T12:39:10.475Z,100912.56
2018-09-05T12:41:48.522Z,100912.52
2018-09-05T12:44:17.830Z,100896.70
2018-09-05T12:46:47.166Z,100896.06
2018-09-05T12:49:16.427Z,100898.42
2018-09-05T12:51:46.581Z,100898.84
2018-09-05T12:54:15.827Z,100890.20
2018-09-05T12:56:49.443Z,100885.33
2018-09-05T12:59:18.864Z,100881.83
2018-09-05T13:01:52.078Z,100878.98
2018-09-05T13:04:21.348Z,100885.95
2018-09-05T13:06:50.861Z,100885.86
2018-09-05T13:09:20.574Z,100886.03
2018-09-05T13:11:50.847Z,100883.00
2018-09-05T13:14:20.144Z,100884.72
2018-09-05T13:16:49.637Z,100883.78
2018-09-05T13:19:18.950Z,100880.08
2018-09-05T13:21:48.258Z,100880.66
2018-09-05T13:24:20.377Z,100879.43
2018-09-05T13:26:52.114Z,100875.83
2018-09-05T13:29:21.781Z,100869.53
2018-09-05T13:31:51.188Z,100863.47
2018-09-05T13:34:20.549Z,100861.76
2018-09-05T13:36:49.886Z,100855.27
2018-09-05T13:39:19.126Z,100850.87
2018-09-05T13:41:48.519Z,100852.12
2018-09-05T13:44:17.855Z,100853.17
2018-09-05T13:46:47.074Z,100845.27
2018-09-05T13:49:16.346Z,100845.05
2018-09-05T13:51:49.586Z,100840.98
2018-09-05T13:54:18.899Z,100837.70
2018-09-05T13:56:48.374Z,100833.30
2018-09-05T13:59:26.936Z,100831.33
2018-09-05T14:02:08.805Z,100834.91
2018-09-05T14:04:51.331Z,100823.22
2018-09-05T14:07:32.109Z,100819.79
2018-09-05T14:10:23.436Z,100817.66
2018-09-05T14:12:52.762Z,100813.57
2018-09-05T14:15:22.053Z,100815.23
2018-09-05T14:17:51.303Z,100818.30
2018-09-05T14:20:20.742Z,100823.77
2018-09-05T14:22:50.314Z,100819.98
2018-09-05T14:25:19.710Z,100822.39
2018-09-05T14:27:49.074Z,100808.82
2018-09-05T14:30:18.386Z,100811.67
2018-09-05T14:32:47.810Z,100816.35
2018-09-05T14:35:17.126Z,100819.83
2018-09-05T14:37:46.706Z,100817.61
2018-09-05T14:40:16.086Z,100811.06
2018-09-05T14:42:45.541Z,100805.69
2018-09-05T14:45:14.846Z,100805.00
2018-09-05T14:47:44.663Z,100802.20
2018-09-05T14:50:14.061Z,100807.04
2018-09-05T14:52:43.614Z,100808.53
2018-09-05T14:55:13.457Z,100801.64
2018-09-05T14:57:43.458Z,100800.20
2018-09-05T15:00:13.849Z,100800.50
2018-09-05T15:02:45.441Z,100802.91
2018-09-05T15:05:14.742Z,100795.91
2018-09-05T15:07:47.694Z,100790.78
2018-09-05T15:10:17.378Z,100784.19
2018-09-05T15:12:47.110Z,100785.00
2018-09-05T15:15:17.313Z,100784.16
2018-09-05T15:17:46.647Z,100785.02
2018-09-05T15:20:15.969Z,100786.77
2018-09-05T15:22:45.340Z,100778.28
2018-09-05T15:25:14.793Z,100779.90
2018-09-05T15:27:44.088Z,100766.70
2018-09-05T15:30:13.355Z,100774.25
2018-09-05T15:32:42.548Z,100774.06
2018-09-05T15:35:11.935Z,100777.47
2018-09-05T15:37:41.346Z,100775.16
2018-09-05T15:40:10.746Z,100778.72
2018-09-05T15:42:41.143Z,100776.61
2018-09-05T15:45:10.635Z,100774.26
2018-09-05T15:47:40.026Z,100767.75
2018-09-05T15:50:09.606Z,100768.17
2018-09-05T15:52:38.918Z,100768.24
2018-09-05T15:55:08.399Z,100769.86
2018-09-05T15:57:38.029Z,100766.42
2018-09-05T16:00:07.549Z,100766.36
2018-09-05T16:02:37.063Z,100768.50
2018-09-05T16:05:06.650Z,100766.55
2018-09-05T16:07:36.171Z,100768.44
2018-09-05T16:10:05.517Z,100766.45
2018-09-05T16:12:35.016Z,100766.00
2018-09-05T16:15:04.617Z,100766.84
2018-09-05T16:17:33.918Z,100767.95
2018-09-05T16:20:03.794Z,100756.91
2018-09-05T16:22:33.307Z,100759.69
2018-09-05T16:25:02.794Z,100762.71
2018-09-05T16:27:32.127Z,100751.75
2018-09-05T16:30:01.494Z,100753.19
2018-09-05T16:32:30.989Z,100747.66
2018-09-05T16:35:00.435Z,100743.38
2018-09-05T16:37:29.794Z,100743.38
2018-09-05T16:39:59.213Z,100741.66
2018-09-05T16:42:28.527Z,100740.41
2018-09-05T16:44:58.065Z,100744.09
2018-09-05T16:47:27.521Z,100739.48
2018-09-05T16:49:57.022Z,100738.59
2018-09-05T16:52:29.850Z,100732.59
2018-09-05T16:54:59.839Z,100739.17
2018-09-05T16:57:29.327Z,100739.59
2018-09-05T16:59:58.775Z,100739.95
2018-09-05T17:02:28.310Z,100742.48
2018-09-05T17:04:57.658Z,100739.35
2018-09-05T17:07:27.032Z,100747.06
2018-09-05T17:09:56.402Z,100746.17
2018-09-05T17:12:25.914Z,100743.41
2018-09-05T17:14:55.270Z,100746.02
2018-09-05T17:17:24.694Z,100750.42
2018-09-05T17:19:54.174Z,100754.27
2018-09-05T17:22:23.691Z,100757.54
2018-09-05T17:24:53.162Z,100763.52
2018-09-05T17:27:22.650Z,100764.55
2018-09-05T17:29:52.146Z,100762.95
2018-09-05T17:32:21.534Z,100766.56
2018-09-05T17:34:50.842Z,100765.21
2018-09-05T17:37:20.230Z,100772.14
2018-09-05T17:39:49.668Z,100772.19
2018-09-05T17:42:22.634Z,100771.11
2018-09-05T17:44:52.013Z,100770.72
2018-09-05T17:47:21.312Z,100768.46
2018-09-05T17:49:50.691Z,100776.45
2018-09-05T17:52:20.111Z,100784.47
2018-09-05T17:54:49.716Z,100777.44
2018-09-05T17:57:19.050Z,100778.30
2018-09-05T17:59:48.472Z,100781.83
2018-09-05T18:02:17.884Z,100779.89
2018-09-05T18:04:47.320Z,100776.61
2018-09-05T18:07:16.942Z,100776.33
2018-09-05T18:09:46.406Z,100783.36
2018-09-05T18:12:15.740Z,100783.59
2018-09-05T18:14:45.144Z,100783.81
2018-09-05T18:17:14.552Z,100782.71
2018-09-05T18:19:43.846Z,100785.38
2018-09-05T18:22:13.179Z,100783.42
2018-09-05T18:24:42.619Z,100789.05
2018-09-05T18:27:12.006Z,100789.81
2018-09-05T18:29:41.464Z,100787.59
2018-09-05T18:32:11.027Z,100787.81
2018-09-05T18:34:40.359Z,100792.71
2018-09-05T18:37:09.711Z,100798.14
2018-09-05T18:39:40.019Z,100796.42
2018-09-05T18:42:09.312Z,100793.68
2018-09-05T18:44:38.747Z,100797.44
2018-09-05T18:47:08.007Z,100793.31
2018-09-05T18:49:37.469Z,100793.53
2018-09-05T18:52:07.241Z,100793.47
2018-09-05T18:54:36.684Z,100797.50
2018-09-05T18:57:06.601Z,100791.20
2018-09-05T18:59:36.063Z,100795.52
2018-09-05T19:02:05.659Z,100794.15
2018-09-05T19:04:35.823Z,100792.79
2018-09-05T19:07:05.328Z,100795.20
2018-09-05T19:09:34.778Z,100795.20
2018-09-05T19:12:04.214Z,100798.98
2018-09-05T19:14:34.637Z,100799.53
2018-09-05T19:17:03.978Z,100800.56
2018-09-05T19:19:33.279Z,100802.19
2018-09-05T19:22:02.647Z,100798.63
2018-09-05T19:24:33.123Z,100797.48
2018-09-05T19:27:02.530Z,100787.42
2018-09-05T19:29:32.031Z,100787.69
2018-09-05T19:32:01.450Z,100788.52
2018-09-05T19:34:30.896Z,100785.78
2018-09-05T19:37:00.573Z,100785.39
2018-09-05T19:39:29.952Z,100780.66
2018-09-05T19:41:59.258Z,100784.08
2018-09-05T19:44:28.778Z,100790.48
2018-09-05T19:46:59.290Z,100791.45
2018-09-05T19:49:28.975Z,100793.27
2018-09-05T19:51:58.407Z,100789.41
2018-09-05T19:54:27.764Z,100788.06
2018-09-05T19:56:57.147Z,100784.30
2018-09-05T19:59:26.626Z,100788.09
2018-09-05T20:01:56.310Z,100787.80
2018-09-05T20:04:25.770Z,100784.44
2018-09-05T20:06:55.198Z,100783.58
2018-09-05T20:09:24.600Z,100784.01
2018-09-05T20:11:54.090Z,100781.20
2018-09-05T20:14:23.453Z,100780.55
2018-09-05T20:16:52.781Z,100782.65
2018-09-05T20:19:22.120Z,100789.38
2018-09-05T20:21:52.347Z,100786.41
2018-09-05T20:24:28.845Z,100785.55
2018-09-05T20:26:58.434Z,100781.69
2018-09-05T20:29:28.090Z,100781.31
2018-09-05T20:31:57.359Z,100780.95
2018-09-05T20:34:26.778Z,100783.88
2018-09-05T20:36:56.330Z,100781.95
2018-09-05T20:39:25.774Z,100777.86
2018-09-05T20:41:55.260Z,100775.13
2018-09-05T20:44:24.621Z,100776.39
2018-09-05T20:46:53.959Z,100771.96
2018-09-05T20:49:23.287Z,100773.77
2018-09-05T20:51:52.674Z,100776.69
2018-09-05T20:54:29.345Z,100773.38
2018-09-05T20:56:58.818Z,100776.00
2018-09-05T20:59:28.283Z,100774.83
2018-09-05T21:01:57.767Z,100781.02
2018-09-05T21:04:27.201Z,100774.48
2018-09-05T21:06:56.809Z,100777.70
2018-09-05T21:09:26.174Z,100773.61
2018-09-05T21:11:55.582Z,100774.62
2018-09-05T21:14:25.242Z,100766.95
2018-09-05T21:16:54.674Z,100763.33
2018-09-05T21:19:24.042Z,100769.39
2018-09-05T21:21:53.270Z,100764.98
2018-09-05T21:24:22.650Z,100768.47
2018-09-05T21:26:52.229Z,100769.56
2018-09-05T21:29:21.743Z,100762.07
2018-09-05T21:31:51.034Z,100763.98
2018-09-05T21:34:20.402Z,100761.38
2018-09-05T21:36:49.682Z,100765.20
2018-09-05T21:39:19.158Z,100759.36
2018-09-05T21:41:48.508Z,100757.22
2018-09-05T21:44:17.922Z,100756.88
2018-09-05T21:46:47.361Z,100758.41
2018-09-05T21:49:16.694Z,100752.61
2018-09-05T21:51:46.050Z,100755.80
2018-09-05T21:54:15.482Z,100754.61
2018-09-05T21:56:44.853Z,100750.21
2018-09-05T21:59:14.293Z,100759.92
2018-09-05T22:01:43.601Z,100756.80
2018-09-05T22:04:13.053Z,100751.65
2018-09-05T22:06:42.480Z,100751.34
2018-09-05T22:09:12.570Z,100742.37
2018-09-05T22:11:41.855Z,100749.08
2018-09-05T22:14:11.270Z,100744.98
2018-09-05T22:16:40.647Z,100738.86
2018-09-05T22:19:10.062Z,100736.02
2018-09-05T22:21:39.504Z,100739.97
2018-09-05T22:24:09.019Z,100736.30
2018-09-05T22:26:38.474Z,100736.75
2018-09-05T22:29:07.940Z,100737.27
2018-09-05T22:31:37.342Z,100733.95
2018-09-05T22:34:06.652Z,100733.53
2018-09-05T22:36:36.033Z,100734.09
2018-09-05T22:39:06.214Z,100729.65
2018-09-05T22:41:35.536Z,100732.11
2018-09-05T22:44:15.672Z,100730.19
2018-09-05T22:46:55.798Z,100729.80
2018-09-05T22:49:54.738Z,100725.42
2018-09-05T22:54:46.849Z,100718.08
2018-09-05T22:57:39.218Z,100724.15
2018-09-05T23:00:19.348Z,100718.34
2018-09-05T23:02:58.335Z,100714.61
2018-09-05T23:08:44.789Z,100705.48
2018-09-05T23:12:22.510Z,100703.38
2018-09-05T23:15:02.834Z,100692.38
2018-09-05T23:17:43.026Z,100697.52
2018-09-05T23:21:20.397Z,100693.53
2018-09-05T23:24:00.697Z,100686.43
2018-09-05T23:26:30.233Z,100688.85
2018-09-05T23:28:59.626Z,100685.28
2018-09-05T23:31:28.911Z,100683.88
2018-09-05T23:33:58.293Z,100678.59
2018-09-05T23:36:27.681Z,100680.19
2018-09-05T23:38:56.973Z,100681.70
2018-09-05T23:41:26.403Z,100674.30
2018-09-05T23:43:55.833Z,100671.97
2018-09-05T23:46:25.213Z,100668.75
2018-09-05T23:48:54.509Z,100673.05
2018-09-05T23:51:23.834Z,100670.35
2018-09-05T23:53:53.106Z,100663.66
2018-09-05T23:56:22.612Z,100666.98
2018-09-05T23:58:51.983Z,100668.44
